createdAt,value
2023-05-15T00:01:20.814Z,1.90
2023-05-15T00:03:48.683Z,3.70
2023-05-15T00:06:16.186Z,4.50
2023-05-15T00:08:44.970Z,4.10
2023-05-15T00:11:12.748Z,3.28
2023-05-15T00:13:40.209Z,4.68
2023-05-15T00:16:10.834Z,5.37
2023-05-15T00:18:38.595Z,4.60
2023-05-15T00:21:06.460Z,6.68
2023-05-15T00:23:33.905Z,5.37
2023-05-15T00:26:01.627Z,3.80
2023-05-15T00:28:29.045Z,4.85
2023-05-15T00:30:56.672Z,5.10
2023-05-15T00:33:24.426Z,4.05
2023-05-15T00:35:51.886Z,6.62
2023-05-15T00:38:19.321Z,4.97
2023-05-15T00:40:47.319Z,5.68
2023-05-15T00:43:15.305Z,5.70
2023-05-15T00:45:43.647Z,5.80
2023-05-15T00:48:11.552Z,6.07
2023-05-15T00:50:41.587Z,6.50
2023-05-15T00:53:09.260Z,13.40
2023-05-15T00:55:37.578Z,6.43
2023-05-15T00:58:05.324Z,6.90
2023-05-15T01:00:33.664Z,9.23
2023-05-15T01:03:01.944Z,5.72
2023-05-15T01:05:29.618Z,6.45
2023-05-15T01:08:26.995Z,6.75
2023-05-15T01:10:55.636Z,5.50
2023-05-15T01:13:23.410Z,8.95
2023-05-15T01:15:51.009Z,7.05
2023-05-15T01:18:18.824Z,7.62
2023-05-15T01:21:18.575Z,6.95
2023-05-15T01:24:05.040Z,7.65
2023-05-15T01:26:40.821Z,8.65
2023-05-15T01:29:23.624Z,7.85
2023-05-15T01:32:02.489Z,8.93
2023-05-15T01:34:38.255Z,5.43
2023-05-15T01:37:06.749Z,7.25
2023-05-15T01:39:35.946Z,9.18
2023-05-15T01:42:11.055Z,9.85
2023-05-15T01:44:46.280Z,6.37
2023-05-15T01:47:15.550Z,10.75
2023-05-15T01:49:45.675Z,13.48
2023-05-15T01:52:31.273Z,8.68
2023-05-15T01:55:01.298Z,5.80
2023-05-15T01:57:29.879Z,10.02
2023-05-15T01:59:58.047Z,7.43
2023-05-15T02:02:27.382Z,7.45
2023-05-15T02:04:55.897Z,6.30
2023-05-15T02:07:23.784Z,6.32
2023-05-15T02:09:52.781Z,10.05
2023-05-15T02:12:21.280Z,8.52
2023-05-15T02:14:49.789Z,7.35
2023-05-15T02:17:17.465Z,7.20
2023-05-15T02:19:44.899Z,9.50
2023-05-15T02:22:12.669Z,7.35
2023-05-15T02:24:40.875Z,7.60
2023-05-15T02:27:28.119Z,8.52
2023-05-15T02:30:06.533Z,9.13
2023-05-15T02:32:40.237Z,8.75
2023-05-15T02:35:27.476Z,8.60
2023-05-15T02:37:56.805Z,6.80
2023-05-15T02:40:26.703Z,7.18
2023-05-15T02:42:54.675Z,9.23
2023-05-15T02:45:22.480Z,8.50
2023-05-15T02:47:51.737Z,8.60
2023-05-15T02:50:19.707Z,9.35
2023-05-15T02:52:47.207Z,8.35
2023-05-15T02:55:14.876Z,11.85
2023-05-15T02:57:42.419Z,8.73
2023-05-15T03:00:13.539Z,9.07
2023-05-15T03:02:41.357Z,9.35
2023-05-15T03:05:09.108Z,7.40
2023-05-15T03:07:36.556Z,8.45
2023-05-15T03:10:04.654Z,7.15
2023-05-15T03:12:32.048Z,8.10
2023-05-15T03:14:59.491Z,9.60
2023-05-15T03:17:27.342Z,6.50
2023-05-15T03:19:54.930Z,10.18
2023-05-15T03:22:22.426Z,7.40
2023-05-15T03:24:50.166Z,8.18
2023-05-15T03:27:17.598Z,8.90
2023-05-15T03:29:45.186Z,11.18
2023-05-15T03:32:12.933Z,11.90
2023-05-15T03:34:41.047Z,6.40
2023-05-15T03:37:08.921Z,9.45
2023-05-15T03:39:36.671Z,7.50
2023-05-15T03:42:05.479Z,10.32
2023-05-15T03:44:33.350Z,7.90
2023-05-15T03:47:01.111Z,9.55
2023-05-15T03:49:28.601Z,9.95
2023-05-15T03:51:56.905Z,8.50
2023-05-15T03:54:24.686Z,8.05
2023-05-15T03:56:53.477Z,7.87
2023-05-15T03:59:20.972Z,9.02
2023-05-15T04:02:03.589Z,10.70
2023-05-15T04:04:32.990Z,14.73
2023-05-15T04:07:00.816Z,11.70
2023-05-15T04:09:28.279Z,8.90
2023-05-15T04:11:56.094Z,10.50
2023-05-15T04:14:23.492Z,15.93
2023-05-15T04:16:51.031Z,10.32
2023-05-15T04:19:18.889Z,8.00
2023-05-15T04:21:46.426Z,9.50
2023-05-15T04:24:13.805Z,10.82
2023-05-15T04:26:42.247Z,8.90
2023-05-15T04:29:10.147Z,13.70
2023-05-15T04:31:38.560Z,9.43
2023-05-15T04:34:06.607Z,11.93
2023-05-15T04:36:34.981Z,12.40
2023-05-15T04:39:02.452Z,14.07
2023-05-15T04:41:30.405Z,10.32
2023-05-15T04:43:57.863Z,11.52
2023-05-15T04:46:25.347Z,11.48
2023-05-15T04:48:53.153Z,11.50
2023-05-15T04:51:20.538Z,17.55
2023-05-15T04:53:47.975Z,13.77
2023-05-15T04:56:15.656Z,10.68
2023-05-15T04:58:43.122Z,12.48
2023-05-15T05:01:10.815Z,10.75
2023-05-15T05:03:38.636Z,13.65
2023-05-15T05:06:06.269Z,14.55
2023-05-15T05:08:33.654Z,12.57
2023-05-15T05:11:01.497Z,12.65
2023-05-15T05:13:28.924Z,15.18
2023-05-15T05:15:56.398Z,17.12
2023-05-15T05:18:24.345Z,12.63
2023-05-15T05:20:59.485Z,12.23
2023-05-15T05:23:27.799Z,14.87
2023-05-15T05:25:55.222Z,12.02
2023-05-15T05:28:22.945Z,14.70
2023-05-15T05:30:51.115Z,12.18
2023-05-15T05:33:18.658Z,10.57
2023-05-15T05:35:46.034Z,11.52
2023-05-15T05:38:13.795Z,9.75
2023-05-15T05:40:41.310Z,9.27
2023-05-15T05:43:08.747Z,17.98
2023-05-15T05:45:36.482Z,12.55
2023-05-15T05:48:04.042Z,8.07
2023-05-15T05:50:31.470Z,10.20
2023-05-15T05:52:59.193Z,12.73
2023-05-15T05:55:26.850Z,12.68
2023-05-15T05:57:54.510Z,12.25
2023-05-15T06:00:22.504Z,9.15
2023-05-15T06:02:53.601Z,10.18
2023-05-15T06:05:21.106Z,14.38
2023-05-15T06:07:48.582Z,9.98
2023-05-15T06:10:16.283Z,13.38
2023-05-15T06:12:43.717Z,11.30
2023-05-15T06:15:11.787Z,8.80
2023-05-15T06:17:39.552Z,9.13
2023-05-15T06:20:10.354Z,8.63
2023-05-15T06:22:38.212Z,7.75
2023-05-15T06:25:06.779Z,8.65
2023-05-15T06:27:34.455Z,8.88
2023-05-15T06:30:01.908Z,7.82
2023-05-15T06:32:34.622Z,8.50
2023-05-15T06:35:02.843Z,7.97
2023-05-15T06:37:33.068Z,8.55
2023-05-15T06:40:01.236Z,6.53
2023-05-15T06:42:28.686Z,15.68
2023-05-15T06:44:57.407Z,8.15
2023-05-15T06:47:25.019Z,8.07
2023-05-15T06:49:54.170Z,8.73
2023-05-15T06:52:21.908Z,5.95
2023-05-15T06:54:49.360Z,8.80
2023-05-15T06:57:16.812Z,9.65
2023-05-15T06:59:44.552Z,8.25
2023-05-15T07:02:12.077Z,10.25
2023-05-15T07:04:39.751Z,9.88
2023-05-15T07:07:07.557Z,8.88
2023-05-15T07:09:35.557Z,8.10
2023-05-15T07:12:03.879Z,9.25
2023-05-15T07:14:31.806Z,9.88
2023-05-15T07:16:59.301Z,6.97
2023-05-15T07:19:26.927Z,8.88
2023-05-15T07:21:54.696Z,9.43
2023-05-15T07:24:22.135Z,6.85
2023-05-15T07:26:58.329Z,6.68
2023-05-15T07:29:27.022Z,8.05
2023-05-15T07:31:54.587Z,8.45
2023-05-15T07:34:22.129Z,9.98
2023-05-15T07:36:49.820Z,7.68
2023-05-15T07:39:17.318Z,5.15
2023-05-15T07:41:46.968Z,7.70
2023-05-15T07:44:14.735Z,6.68
2023-05-15T07:46:42.274Z,5.95
2023-05-15T07:49:09.708Z,6.00
2023-05-15T07:51:37.485Z,4.75
2023-05-15T07:54:05.028Z,4.70
2023-05-15T07:56:33.222Z,5.68
2023-05-15T07:59:01.020Z,6.28
2023-05-15T08:01:30.585Z,5.18
2023-05-15T08:03:59.166Z,4.40
2023-05-15T08:06:26.901Z,4.85
2023-05-15T08:08:54.308Z,5.87
2023-05-15T08:11:22.115Z,5.60
2023-05-15T08:13:49.663Z,4.90
2023-05-15T08:16:18.513Z,4.82
2023-05-15T08:18:46.337Z,4.35
2023-05-15T08:21:13.876Z,6.10
2023-05-15T08:23:41.340Z,8.25
2023-05-15T08:26:09.258Z,3.97
2023-05-15T08:28:36.705Z,3.87
2023-05-15T08:31:04.125Z,5.10
2023-05-15T08:33:31.886Z,5.40
2023-05-15T08:35:59.373Z,5.37
2023-05-15T08:38:26.784Z,4.68
2023-05-15T08:40:58.211Z,3.80
2023-05-15T08:43:26.361Z,4.37
2023-05-15T08:45:54.280Z,4.22
2023-05-15T08:48:25.377Z,6.60
2023-05-15T08:50:53.193Z,3.22
2023-05-15T08:53:21.371Z,5.20
2023-05-15T08:55:49.164Z,4.30
2023-05-15T08:58:21.415Z,3.87
2023-05-15T09:00:49.708Z,4.25
2023-05-15T09:03:18.354Z,4.97
2023-05-15T09:05:48.263Z,4.35
2023-05-15T09:08:17.060Z,6.37
2023-05-15T09:10:44.604Z,4.95
2023-05-15T09:13:12.486Z,4.65
2023-05-15T09:15:40.677Z,5.30
2023-05-15T09:18:08.579Z,5.93
2023-05-15T09:20:37.553Z,5.85
2023-05-15T09:23:06.301Z,5.00
2023-05-15T09:25:41.740Z,5.68
2023-05-15T09:28:11.577Z,6.03
2023-05-15T09:30:39.693Z,4.55
2023-05-15T09:33:07.258Z,4.35
2023-05-15T09:35:39.089Z,5.72
2023-05-15T09:38:12.829Z,4.30
2023-05-15T09:40:41.052Z,3.45
2023-05-15T09:43:11.123Z,3.60
2023-05-15T09:45:38.668Z,4.18
2023-05-15T09:48:07.695Z,3.22
2023-05-15T09:50:36.812Z,2.72
2023-05-15T09:53:05.030Z,1.65
2023-05-15T09:55:34.159Z,2.90
2023-05-15T09:58:08.472Z,3.97
2023-05-15T10:00:47.609Z,2.72
2023-05-15T10:03:19.747Z,2.22
2023-05-15T10:05:47.409Z,2.12
2023-05-15T10:08:15.957Z,3.70
2023-05-15T10:10:44.924Z,1.73
2023-05-15T10:13:12.364Z,2.05
2023-05-15T10:15:40.519Z,4.03
2023-05-15T10:18:08.865Z,2.22
2023-05-15T10:20:37.126Z,2.60
2023-05-15T10:23:06.321Z,2.90
2023-05-15T10:25:51.872Z,3.95
2023-05-15T10:28:20.100Z,2.40
2023-05-15T10:30:48.341Z,3.37
2023-05-15T10:33:16.114Z,4.10
2023-05-15T10:35:44.266Z,3.80
2023-05-15T10:38:12.990Z,2.53
2023-05-15T10:40:41.086Z,2.05
2023-05-15T10:43:10.366Z,1.98
2023-05-15T10:45:38.296Z,2.50
2023-05-15T10:48:07.835Z,3.28
2023-05-15T10:50:36.976Z,2.58
2023-05-15T10:53:04.753Z,2.67
2023-05-15T10:55:32.242Z,3.08
2023-05-15T10:57:59.716Z,2.85
2023-05-15T11:00:29.262Z,8.88
2023-05-15T11:02:58.671Z,2.70
2023-05-15T11:05:26.919Z,2.92
2023-05-15T11:08:13.626Z,3.00
2023-05-15T11:10:41.444Z,4.50
2023-05-15T11:13:09.264Z,3.03
2023-05-15T11:15:47.493Z,2.95
2023-05-15T11:18:15.724Z,2.20
2023-05-15T11:20:52.147Z,3.47
2023-05-15T11:23:23.275Z,4.07
2023-05-15T11:25:55.085Z,2.10
2023-05-15T11:28:24.088Z,3.28
2023-05-15T11:30:52.618Z,2.53
2023-05-15T11:33:20.845Z,3.40
2023-05-15T11:35:48.735Z,4.70
2023-05-15T11:38:18.316Z,2.67
2023-05-15T11:40:48.834Z,2.30
2023-05-15T11:43:27.671Z,6.72
2023-05-15T11:45:58.724Z,2.05
2023-05-15T11:48:31.959Z,2.37
2023-05-15T11:51:01.363Z,1.67
2023-05-15T11:53:33.303Z,4.95
2023-05-15T11:56:01.000Z,3.28
2023-05-15T11:58:28.723Z,1.52
2023-05-15T12:00:58.014Z,1.27
2023-05-15T12:03:38.006Z,2.33
2023-05-15T12:06:06.351Z,1.65
2023-05-15T12:08:35.439Z,1.75
2023-05-15T12:11:03.810Z,2.03
2023-05-15T12:13:32.444Z,3.00
2023-05-15T12:16:01.649Z,2.67
2023-05-15T12:18:33.074Z,2.55
2023-05-15T12:21:01.005Z,3.72
2023-05-15T12:23:28.680Z,2.65
2023-05-15T12:26:00.125Z,2.22
2023-05-15T12:28:28.760Z,2.08
2023-05-15T12:30:56.787Z,1.55
2023-05-15T12:33:24.885Z,1.60
2023-05-15T12:35:59.137Z,2.03
2023-05-15T12:38:29.130Z,0.95
2023-05-15T12:40:57.255Z,2.42
2023-05-15T12:43:26.186Z,2.40
2023-05-15T12:45:55.141Z,2.28
2023-05-15T12:48:23.633Z,1.70
2023-05-15T12:50:51.678Z,1.98
2023-05-15T12:53:22.129Z,0.93
2023-05-15T12:55:51.062Z,1.17
2023-05-15T12:58:19.221Z,0.80
2023-05-15T13:00:47.995Z,1.05
2023-05-15T13:03:16.005Z,3.40
2023-05-15T13:05:45.409Z,6.85
2023-05-15T13:08:17.725Z,2.22
2023-05-15T13:10:46.803Z,2.17
2023-05-15T13:13:14.857Z,1.37
2023-05-15T13:15:44.050Z,0.95
2023-05-15T13:18:16.212Z,1.37
2023-05-15T13:20:52.274Z,1.58
2023-05-15T13:23:21.588Z,2.65
2023-05-15T13:25:49.048Z,1.85
2023-05-15T13:28:16.570Z,1.35
2023-05-15T13:30:44.432Z,2.90
2023-05-15T13:33:12.630Z,1.00
2023-05-15T13:35:41.296Z,2.58
2023-05-15T13:38:11.537Z,1.17
2023-05-15T13:40:39.655Z,1.90
2023-05-15T13:43:07.113Z,2.47
2023-05-15T13:45:35.138Z,2.17
2023-05-15T13:48:03.221Z,0.73
2023-05-15T13:50:30.697Z,1.00
2023-05-15T13:52:58.693Z,3.17
2023-05-15T13:55:26.203Z,1.15
2023-05-15T13:57:53.625Z,2.50
2023-05-15T14:00:21.757Z,1.65
2023-05-15T14:02:49.487Z,1.98
2023-05-15T14:05:17.434Z,2.35
2023-05-15T14:07:45.328Z,1.62
2023-05-15T14:10:13.212Z,1.65
2023-05-15T14:12:40.774Z,0.70
2023-05-15T14:15:08.724Z,1.90
2023-05-15T14:17:36.997Z,0.95
2023-05-15T14:20:05.427Z,1.90
2023-05-15T14:22:33.205Z,1.85
2023-05-15T14:25:00.951Z,2.05
2023-05-15T14:27:28.779Z,3.15
2023-05-15T14:29:59.386Z,1.08
2023-05-15T14:32:27.333Z,1.12
2023-05-15T14:34:56.970Z,0.98
2023-05-15T14:37:24.372Z,1.42
2023-05-15T14:39:52.251Z,1.10
2023-05-15T14:42:20.925Z,3.20
2023-05-15T14:44:48.720Z,1.87
2023-05-15T14:47:16.914Z,1.77
2023-05-15T14:49:44.412Z,2.05
2023-05-15T14:52:14.874Z,2.55
2023-05-15T14:54:43.680Z,2.45
2023-05-15T14:57:11.276Z,2.75
2023-05-15T14:59:38.810Z,0.80
2023-05-15T15:02:07.194Z,2.67
2023-05-15T15:04:34.699Z,1.15
2023-05-15T15:07:03.847Z,1.75
2023-05-15T15:09:31.640Z,2.22
2023-05-15T15:11:59.073Z,3.15
2023-05-15T15:14:26.515Z,2.15
2023-05-15T15:16:54.527Z,1.58
2023-05-15T15:19:22.262Z,2.10
2023-05-15T15:21:49.808Z,1.62
2023-05-15T15:24:17.591Z,1.70
2023-05-15T15:26:45.009Z,1.50
2023-05-15T15:29:12.468Z,1.48
2023-05-15T15:31:40.222Z,2.12
2023-05-15T15:34:09.079Z,2.08
2023-05-15T15:36:38.697Z,1.95
2023-05-15T15:39:06.446Z,2.67
2023-05-15T15:41:37.397Z,2.05
2023-05-15T15:44:05.573Z,3.50
2023-05-15T15:46:33.514Z,1.42
2023-05-15T15:49:01.105Z,2.33
2023-05-15T15:51:28.579Z,2.17
2023-05-15T15:53:56.287Z,2.28
2023-05-15T15:56:23.731Z,1.87
2023-05-15T15:58:51.113Z,1.92
2023-05-15T16:01:19.036Z,1.65
2023-05-15T16:03:46.832Z,1.95
2023-05-15T16:06:14.279Z,2.70
2023-05-15T16:08:41.723Z,0.98
2023-05-15T16:11:09.507Z,1.33
2023-05-15T16:13:37.586Z,3.40
2023-05-15T16:16:06.157Z,2.17
2023-05-15T16:18:34.589Z,3.12
2023-05-15T16:21:02.334Z,3.45
2023-05-15T16:23:36.597Z,3.17
2023-05-15T16:26:05.078Z,3.62
2023-05-15T16:28:32.529Z,1.67
2023-05-15T16:31:00.323Z,2.20
2023-05-15T16:33:29.708Z,1.37
2023-05-15T16:35:57.378Z,1.12
2023-05-15T16:38:24.815Z,1.27
2023-05-15T16:40:52.494Z,2.47
2023-05-15T16:43:21.877Z,1.83
2023-05-15T16:45:49.450Z,1.33
2023-05-15T16:48:17.241Z,1.77
2023-05-15T16:50:44.698Z,1.05
2023-05-15T16:53:12.430Z,0.82
2023-05-15T16:55:40.494Z,0.70
2023-05-15T16:58:08.583Z,0.55
2023-05-15T17:00:36.156Z,1.17
2023-05-15T17:03:05.696Z,0.82
2023-05-15T17:05:33.892Z,0.20
2023-05-15T17:08:01.385Z,0.30
2023-05-15T17:10:29.232Z,1.25
2023-05-15T17:12:56.766Z,1.08
2023-05-15T17:15:24.518Z,0.90
2023-05-15T17:17:52.367Z,0.22
2023-05-15T17:20:19.847Z,1.08
2023-05-15T17:22:47.485Z,0.65
2023-05-15T17:25:15.684Z,0.43
2023-05-15T17:27:43.156Z,0.65
2023-05-15T17:30:11.972Z,2.60
2023-05-15T17:32:40.227Z,0.88
2023-05-15T17:35:08.408Z,0.40
2023-05-15T17:37:35.938Z,3.08
2023-05-15T17:40:04.129Z,0.82
2023-05-15T17:42:31.631Z,0.77
2023-05-15T17:44:59.639Z,0.62
2023-05-15T17:47:27.383Z,0.75
2023-05-15T17:49:55.518Z,1.23
2023-05-15T17:52:23.068Z,1.45
2023-05-15T17:54:50.941Z,1.37
2023-05-15T17:57:18.400Z,1.25
2023-05-15T17:59:45.835Z,1.08
2023-05-15T18:02:13.610Z,0.93
2023-05-15T18:04:41.513Z,1.75
2023-05-15T18:07:08.964Z,2.72
2023-05-15T18:09:36.458Z,1.27
2023-05-15T18:12:04.314Z,1.05
2023-05-15T18:14:32.136Z,0.57
2023-05-15T18:16:59.550Z,1.08
2023-05-15T18:19:27.410Z,9.07
2023-05-15T18:21:54.861Z,1.90
2023-05-15T18:24:22.547Z,1.77
2023-05-15T18:26:50.568Z,2.30
2023-05-15T18:29:18.078Z,3.28
2023-05-15T18:31:45.905Z,4.15
2023-05-15T18:34:13.638Z,2.15
2023-05-15T18:36:41.070Z,2.05
2023-05-15T18:39:08.532Z,1.67
2023-05-15T18:41:36.535Z,3.12
2023-05-15T18:44:04.370Z,1.77
2023-05-15T18:46:31.936Z,2.60
2023-05-15T18:48:59.988Z,1.55
2023-05-15T18:51:27.703Z,2.03
2023-05-15T18:53:56.222Z,1.98
2023-05-15T18:56:25.155Z,1.05
2023-05-15T18:58:54.070Z,10.23
2023-05-15T19:01:22.165Z,4.05
2023-05-15T19:03:50.245Z,1.37
2023-05-15T19:06:20.145Z,2.22
2023-05-15T19:08:48.773Z,0.52
2023-05-15T19:11:16.885Z,1.20
2023-05-15T19:13:44.324Z,3.97
2023-05-15T19:16:12.416Z,2.65
2023-05-15T19:18:40.206Z,4.82
2023-05-15T19:21:08.035Z,3.45
2023-05-15T19:23:35.502Z,2.75
2023-05-15T19:26:03.398Z,2.37
2023-05-15T19:28:30.885Z,1.58
2023-05-15T19:30:58.308Z,2.10
2023-05-15T19:33:26.055Z,1.40
2023-05-15T19:35:53.798Z,3.75
2023-05-15T19:38:21.546Z,2.92
2023-05-15T19:40:49.479Z,4.70
2023-05-15T19:43:16.935Z,4.78
2023-05-15T19:45:44.497Z,2.30
2023-05-15T19:48:12.807Z,2.62
2023-05-15T19:50:40.336Z,2.12
2023-05-15T19:53:08.364Z,2.97
2023-05-15T19:55:36.176Z,2.37
2023-05-15T19:58:03.837Z,0.68
2023-05-15T20:00:31.708Z,0.70
2023-05-15T20:03:00.971Z,13.45
2023-05-15T20:05:29.103Z,1.42
2023-05-15T20:07:56.659Z,1.62
2023-05-15T20:10:24.958Z,1.45
2023-05-15T20:12:52.756Z,2.65
2023-05-15T20:15:20.235Z,2.20
2023-05-15T20:17:48.242Z,0.62
2023-05-15T20:20:16.639Z,0.52
2023-05-15T20:22:44.728Z,1.65
2023-05-15T20:25:12.475Z,4.12
2023-05-15T20:27:40.002Z,4.37
2023-05-15T20:30:07.992Z,0.55
2023-05-15T20:32:36.373Z,1.80
2023-05-15T20:35:04.494Z,1.12
2023-05-15T20:37:32.083Z,2.22
2023-05-15T20:40:00.233Z,0.85
2023-05-15T20:42:28.492Z,0.65
2023-05-15T20:44:55.967Z,0.40
2023-05-15T20:47:23.809Z,2.15
2023-05-15T20:49:51.339Z,0.82
2023-05-15T20:52:19.083Z,0.90
2023-05-15T20:54:46.810Z,2.50
2023-05-15T20:57:14.257Z,1.50
2023-05-15T20:59:41.854Z,1.95
2023-05-15T21:02:09.571Z,0.75
2023-05-15T21:04:37.228Z,0.77
2023-05-15T21:07:04.840Z,0.88
2023-05-15T21:09:33.210Z,0.75
2023-05-15T21:12:00.830Z,0.65
2023-05-15T21:14:28.308Z,3.40
2023-05-15T21:16:55.990Z,1.55
2023-05-15T21:19:23.984Z,0.57
2023-05-15T21:21:51.502Z,0.50
2023-05-15T21:24:19.214Z,0.70
2023-05-15T21:26:46.999Z,3.00
2023-05-15T21:29:14.593Z,1.67
2023-05-15T21:31:42.418Z,1.60
2023-05-15T21:34:09.856Z,1.05
2023-05-15T21:36:37.258Z,1.55
2023-05-15T21:39:04.968Z,9.32
2023-05-15T21:41:32.597Z,1.02
2023-05-15T21:44:00.068Z,1.55
2023-05-15T21:46:27.866Z,2.40
2023-05-15T21:48:55.520Z,1.65
2023-05-15T21:51:22.947Z,1.20
2023-05-15T21:53:50.865Z,0.90
2023-05-15T21:56:18.247Z,3.70
2023-05-15T21:58:45.902Z,1.65
2023-05-15T22:01:15.080Z,1.35
2023-05-15T22:03:43.033Z,2.00
2023-05-15T22:06:10.646Z,2.95
2023-05-15T22:08:38.045Z,2.78
2023-05-15T22:11:06.742Z,2.42
2023-05-15T22:13:34.331Z,4.60
2023-05-15T22:16:01.898Z,4.30
2023-05-15T22:18:29.770Z,1.85
2023-05-15T22:20:57.568Z,1.83
2023-05-15T22:23:25.042Z,4.57
2023-05-15T22:25:52.797Z,2.05
2023-05-15T22:28:21.230Z,6.47
2023-05-15T22:30:49.233Z,2.28
2023-05-15T22:33:16.932Z,1.58
2023-05-15T22:35:44.623Z,3.97
2023-05-15T22:38:12.350Z,1.67
2023-05-15T22:40:40.118Z,3.50
2023-05-15T22:43:07.518Z,3.00
2023-05-15T22:45:35.083Z,3.12
2023-05-15T22:48:03.825Z,2.42
2023-05-15T22:50:31.593Z,1.75
2023-05-15T22:52:59.053Z,2.58
2023-05-15T22:55:27.197Z,1.17
2023-05-15T22:57:54.670Z,7.37
2023-05-15T23:00:22.174Z,1.40
2023-05-15T23:02:50.073Z,1.37
2023-05-15T23:05:17.591Z,1.25
2023-05-15T23:07:45.096Z,2.35
2023-05-15T23:10:12.823Z,1.08
2023-05-15T23:12:40.202Z,3.12
2023-05-15T23:15:08.180Z,2.00
2023-05-15T23:17:36.210Z,1.17
2023-05-15T23:20:06.897Z,1.62
2023-05-15T23:22:34.938Z,2.60
2023-05-15T23:25:04.216Z,1.35
2023-05-15T23:27:31.774Z,1.33
2023-05-15T23:29:59.287Z,1.35
2023-05-15T23:32:27.038Z,1.77
2023-05-15T23:34:54.565Z,11.27
2023-05-15T23:37:22.015Z,1.48
2023-05-15T23:39:49.759Z,6.30
2023-05-15T23:42:17.181Z,1.65
2023-05-15T23:44:44.682Z,1.37
2023-05-15T23:47:12.442Z,2.67
2023-05-15T23:49:39.923Z,2.40
2023-05-15T23:52:07.346Z,1.58
2023-05-15T23:54:35.079Z,2.05
2023-05-15T23:57:03.434Z,2.53
2023-05-15T23:59:31.367Z,2.45
